sensor_id;sensor_type;location;lat;lon;timestamp;P1;durP1;ratioP1;P2;durP2;ratioP2
34491;SDS011;20737;49.908;8.126;2022-11-09T00:01:35;11.23;;;6.75;;
34491;SDS011;20737;49.908;8.126;2022-11-09T00:04:03;9.38;;;5.43;;
34491;SDS011;20737;49.908;8.126;2022-11-09T00:06:31;7.97;;;5.57;;
34491;SDS011;20737;49.908;8.126;2022-11-09T00:08:59;8.18;;;5.75;;
34491;SDS011;20737;49.908;8.126;2022-11-09T00:11:26;7.13;;;5.20;;
34491;SDS011;20737;49.908;8.126;2022-11-09T00:13:54;5.30;;;4.10;;
34491;SDS011;20737;49.908;8.126;2022-11-09T00:16:21;4.45;;;3.28;;
34491;SDS011;20737;49.908;8.126;2022-11-09T00:18:48;7.70;;;3.83;;
34491;SDS011;20737;49.908;8.126;2022-11-09T00:21:17;6.88;;;4.43;;
34491;SDS011;20737;49.908;8.126;2022-11-09T00:23:46;4.45;;;3.20;;
34491;SDS011;20737;49.908;8.126;2022-11-09T00:26:13;5.22;;;3.65;;
34491;SDS011;20737;49.908;8.126;2022-11-09T00:28:41;7.47;;;4.22;;
34491;SDS011;20737;49.908;8.126;2022-11-09T00:31:10;9.15;;;4.25;;
34491;SDS011;20737;49.908;8.126;2022-11-09T00:33:38;5.65;;;2.75;;
34491;SDS011;20737;49.908;8.126;2022-11-09T00:36:05;5.90;;;3.45;;
34491;SDS011;20737;49.908;8.126;2022-11-09T00:38:35;4.70;;;2.40;;
34491;SDS011;20737;49.908;8.126;2022-11-09T00:41:04;3.55;;;2.33;;
34491;SDS011;20737;49.908;8.126;2022-11-09T00:43:32;2.15;;;1.95;;
34491;SDS011;20737;49.908;8.126;2022-11-09T00:45:59;3.50;;;2.28;;
34491;SDS011;20737;49.908;8.126;2022-11-09T00:48:27;4.03;;;2.42;;
34491;SDS011;20737;49.908;8.126;2022-11-09T00:50:55;4.47;;;3.20;;
34491;SDS011;20737;49.908;8.126;2022-11-09T00:53:22;3.97;;;3.17;;
34491;SDS011;20737;49.908;8.126;2022-11-09T00:55:53;3.38;;;2.60;;
34491;SDS011;20737;49.908;8.126;2022-11-09T00:58:20;4.75;;;2.58;;
34491;SDS011;20737;49.908;8.126;2022-11-09T01:00:48;2.95;;;2.50;;
34491;SDS011;20737;49.908;8.126;2022-11-09T01:03:14;3.40;;;2.20;;
34491;SDS011;20737;49.908;8.126;2022-11-09T01:05:43;3.72;;;2.65;;
34491;SDS011;20737;49.908;8.126;2022-11-09T01:08:09;5.50;;;2.40;;
34491;SDS011;20737;49.908;8.126;2022-11-09T01:10:38;4.40;;;2.67;;
34491;SDS011;20737;49.908;8.126;2022-11-09T01:13:07;6.35;;;3.22;;
34491;SDS011;20737;49.908;8.126;2022-11-09T01:15:38;4.22;;;2.90;;
34491;SDS011;20737;49.908;8.126;2022-11-09T01:18:06;2.80;;;2.28;;
34491;SDS011;20737;49.908;8.126;2022-11-09T01:20:39;2.97;;;2.28;;
34491;SDS011;20737;49.908;8.126;2022-11-09T01:23:07;3.78;;;2.20;;
34491;SDS011;20737;49.908;8.126;2022-11-09T01:25:35;1.98;;;1.85;;
34491;SDS011;20737;49.908;8.126;2022-11-09T01:28:02;2.67;;;2.10;;
34491;SDS011;20737;49.908;8.126;2022-11-09T01:30:30;3.08;;;2.08;;
34491;SDS011;20737;49.908;8.126;2022-11-09T01:32:59;3.10;;;2.08;;
34491;SDS011;20737;49.908;8.126;2022-11-09T01:35:28;3.05;;;2.08;;
34491;SDS011;20737;49.908;8.126;2022-11-09T01:37:54;4.65;;;2.55;;
34491;SDS011;20737;49.908;8.126;2022-11-09T01:40:22;3.40;;;2.30;;
34491;SDS011;20737;49.908;8.126;2022-11-09T01:42:49;2.22;;;1.90;;
34491;SDS011;20737;49.908;8.126;2022-11-09T01:45:24;3.08;;;1.98;;
34491;SDS011;20737;49.908;8.126;2022-11-09T01:47:55;3.35;;;2.17;;
34491;SDS011;20737;49.908;8.126;2022-11-09T01:50:31;2.20;;;2.00;;
34491;SDS011;20737;49.908;8.126;2022-11-09T01:53:02;2.78;;;2.00;;
34491;SDS011;20737;49.908;8.126;2022-11-09T01:55:36;2.67;;;1.90;;
34491;SDS011;20737;49.908;8.126;2022-11-09T01:58:04;3.45;;;2.33;;
34491;SDS011;20737;49.908;8.126;2022-11-09T02:00:33;2.20;;;1.65;;
34491;SDS011;20737;49.908;8.126;2022-11-09T02:03:04;2.88;;;1.73;;
34491;SDS011;20737;49.908;8.126;2022-11-09T02:05:35;3.40;;;1.77;;
34491;SDS011;20737;49.908;8.126;2022-11-09T02:08:03;4.82;;;1.85;;
34491;SDS011;20737;49.908;8.126;2022-11-09T02:10:32;2.13;;;1.70;;
34491;SDS011;20737;49.908;8.126;2022-11-09T02:13:05;1.75;;;1.33;;
34491;SDS011;20737;49.908;8.126;2022-11-09T02:15:34;3.15;;;1.52;;
34491;SDS011;20737;49.908;8.126;2022-11-09T02:18:02;2.63;;;1.52;;
34491;SDS011;20737;49.908;8.126;2022-11-09T02:20:38;1.65;;;1.55;;
34491;SDS011;20737;49.908;8.126;2022-11-09T02:23:09;1.98;;;1.30;;
34491;SDS011;20737;49.908;8.126;2022-11-09T02:25:36;1.45;;;1.35;;
34491;SDS011;20737;49.908;8.126;2022-11-09T02:28:03;1.77;;;1.25;;
34491;SDS011;20737;49.908;8.126;2022-11-09T02:30:31;3.17;;;1.30;;
34491;SDS011;20737;49.908;8.126;2022-11-09T02:32:59;1.50;;;1.40;;
34491;SDS011;20737;49.908;8.126;2022-11-09T02:35:26;1.83;;;1.20;;
34491;SDS011;20737;49.908;8.126;2022-11-09T02:37:54;1.58;;;1.08;;
34491;SDS011;20737;49.908;8.126;2022-11-09T02:40:21;1.17;;;1.10;;
34491;SDS011;20737;49.908;8.126;2022-11-09T02:42:53;1.92;;;1.10;;
34491;SDS011;20737;49.908;8.126;2022-11-09T02:45:21;1.50;;;1.20;;
34491;SDS011;20737;49.908;8.126;2022-11-09T02:47:48;1.65;;;1.20;;
34491;SDS011;20737;49.908;8.126;2022-11-09T02:50:14;1.50;;;1.40;;
34491;SDS011;20737;49.908;8.126;2022-11-09T02:52:41;1.55;;;1.45;;
34491;SDS011;20737;49.908;8.126;2022-11-09T02:55:10;3.20;;;1.83;;
34491;SDS011;20737;49.908;8.126;2022-11-09T02:57:36;3.22;;;1.80;;
34491;SDS011;20737;49.908;8.126;2022-11-09T03:00:04;3.10;;;2.03;;
34491;SDS011;20737;49.908;8.126;2022-11-09T03:02:32;4.82;;;2.00;;
34491;SDS011;20737;49.908;8.126;2022-11-09T03:04:59;3.45;;;2.17;;
34491;SDS011;20737;49.908;8.126;2022-11-09T03:07:26;3.53;;;1.83;;
34491;SDS011;20737;49.908;8.126;2022-11-09T03:09:52;3.20;;;1.90;;
34491;SDS011;20737;49.908;8.126;2022-11-09T03:12:20;3.08;;;1.73;;
34491;SDS011;20737;49.908;8.126;2022-11-09T03:14:56;2.55;;;1.70;;
34491;SDS011;20737;49.908;8.126;2022-11-09T03:17:24;3.60;;;1.63;;
34491;SDS011;20737;49.908;8.126;2022-11-09T03:19:51;2.85;;;2.20;;
34491;SDS011;20737;49.908;8.126;2022-11-09T03:22:18;3.35;;;2.00;;
34491;SDS011;20737;49.908;8.126;2022-11-09T03:24:45;1.90;;;1.70;;
34491;SDS011;20737;49.908;8.126;2022-11-09T03:27:12;2.30;;;1.90;;
34491;SDS011;20737;49.908;8.126;2022-11-09T03:29:43;2.13;;;1.90;;
34491;SDS011;20737;49.908;8.126;2022-11-09T03:32:10;2.78;;;1.90;;
34491;SDS011;20737;49.908;8.126;2022-11-09T03:34:37;2.80;;;1.90;;
34491;SDS011;20737;49.908;8.126;2022-11-09T03:37:04;1.92;;;1.77;;
34491;SDS011;20737;49.908;8.126;2022-11-09T03:39:30;2.58;;;2.00;;
34491;SDS011;20737;49.908;8.126;2022-11-09T03:41:57;2.78;;;2.00;;
34491;SDS011;20737;49.908;8.126;2022-11-09T03:44:24;2.47;;;1.85;;
34491;SDS011;20737;49.908;8.126;2022-11-09T03:46:52;3.22;;;2.28;;
34491;SDS011;20737;49.908;8.126;2022-11-09T03:49:19;2.10;;;1.90;;
34491;SDS011;20737;49.908;8.126;2022-11-09T03:51:47;3.03;;;2.22;;
34491;SDS011;20737;49.908;8.126;2022-11-09T03:54:14;3.33;;;2.47;;
34491;SDS011;20737;49.908;8.126;2022-11-09T03:56:41;5.20;;;3.08;;
34491;SDS011;20737;49.908;8.126;2022-11-09T03:59:08;3.88;;;3.33;;
34491;SDS011;20737;49.908;8.126;2022-11-09T04:01:34;4.63;;;2.85;;
34491;SDS011;20737;49.908;8.126;2022-11-09T04:04:02;6.93;;;3.42;;
34491;SDS011;20737;49.908;8.126;2022-11-09T04:06:29;5.45;;;3.20;;
34491;SDS011;20737;49.908;8.126;2022-11-09T04:08:56;4.22;;;2.90;;
34491;SDS011;20737;49.908;8.126;2022-11-09T04:11:23;4.63;;;2.72;;
34491;SDS011;20737;49.908;8.126;2022-11-09T04:13:49;3.17;;;2.83;;
34491;SDS011;20737;49.908;8.126;2022-11-09T04:16:16;4.90;;;2.85;;
34491;SDS011;20737;49.908;8.126;2022-11-09T04:18:43;4.65;;;3.13;;
34491;SDS011;20737;49.908;8.126;2022-11-09T04:21:11;6.18;;;3.47;;
34491;SDS011;20737;49.908;8.126;2022-11-09T04:23:38;4.70;;;2.90;;
34491;SDS011;20737;49.908;8.126;2022-11-09T04:26:04;4.30;;;2.60;;
34491;SDS011;20737;49.908;8.126;2022-11-09T04:28:31;4.03;;;3.22;;
34491;SDS011;20737;49.908;8.126;2022-11-09T04:30:58;2.75;;;2.47;;
34491;SDS011;20737;49.908;8.126;2022-11-09T04:33:26;4.72;;;3.00;;
34491;SDS011;20737;49.908;8.126;2022-11-09T04:35:53;3.55;;;3.03;;
34491;SDS011;20737;49.908;8.126;2022-11-09T04:38:21;4.53;;;2.75;;
34491;SDS011;20737;49.908;8.126;2022-11-09T04:40:47;3.50;;;2.78;;
34491;SDS011;20737;49.908;8.126;2022-11-09T04:43:14;3.88;;;3.15;;
34491;SDS011;20737;49.908;8.126;2022-11-09T04:45:41;4.03;;;3.50;;
34491;SDS011;20737;49.908;8.126;2022-11-09T04:48:08;6.10;;;3.67;;
34491;SDS011;20737;49.908;8.126;2022-11-09T04:50:36;4.53;;;3.95;;
34491;SDS011;20737;49.908;8.126;2022-11-09T04:53:06;4.82;;;3.67;;
34491;SDS011;20737;49.908;8.126;2022-11-09T04:55:36;3.47;;;3.17;;
34491;SDS011;20737;49.908;8.126;2022-11-09T04:58:03;5.25;;;3.85;;
34491;SDS011;20737;49.908;8.126;2022-11-09T05:00:30;4.90;;;4.03;;
34491;SDS011;20737;49.908;8.126;2022-11-09T05:03:00;5.63;;;4.43;;
34491;SDS011;20737;49.908;8.126;2022-11-09T05:05:27;9.70;;;5.07;;
34491;SDS011;20737;49.908;8.126;2022-11-09T05:07:54;6.30;;;5.28;;
34491;SDS011;20737;49.908;8.126;2022-11-09T05:10:20;8.98;;;5.93;;
34491;SDS011;20737;49.908;8.126;2022-11-09T05:12:49;9.40;;;7.25;;
34491;SDS011;20737;49.908;8.126;2022-11-09T05:15:16;8.93;;;6.80;;
34491;SDS011;20737;49.908;8.126;2022-11-09T05:17:43;7.72;;;6.63;;
34491;SDS011;20737;49.908;8.126;2022-11-09T05:20:10;8.32;;;5.70;;
34491;SDS011;20737;49.908;8.126;2022-11-09T05:22:40;8.45;;;6.70;;
34491;SDS011;20737;49.908;8.126;2022-11-09T05:25:24;10.95;;;6.85;;
34491;SDS011;20737;49.908;8.126;2022-11-09T05:27:52;12.15;;;8.25;;
34491;SDS011;20737;49.908;8.126;2022-11-09T05:30:19;9.70;;;7.47;;
34491;SDS011;20737;49.908;8.126;2022-11-09T05:32:46;10.25;;;7.03;;
34491;SDS011;20737;49.908;8.126;2022-11-09T05:35:13;11.10;;;6.78;;
34491;SDS011;20737;49.908;8.126;2022-11-09T05:37:40;11.43;;;7.03;;
34491;SDS011;20737;49.908;8.126;2022-11-09T05:40:07;13.57;;;7.30;;
34491;SDS011;20737;49.908;8.126;2022-11-09T05:42:37;11.15;;;8.10;;
34491;SDS011;20737;49.908;8.126;2022-11-09T05:45:06;13.75;;;8.30;;
34491;SDS011;20737;49.908;8.126;2022-11-09T05:47:35;11.30;;;7.63;;
34491;SDS011;20737;49.908;8.126;2022-11-09T05:50:03;10.13;;;6.65;;
34491;SDS011;20737;49.908;8.126;2022-11-09T05:52:31;12.98;;;7.75;;
34491;SDS011;20737;49.908;8.126;2022-11-09T05:54:58;10.63;;;6.90;;
34491;SDS011;20737;49.908;8.126;2022-11-09T05:57:25;10.05;;;7.25;;
34491;SDS011;20737;49.908;8.126;2022-11-09T05:59:52;11.95;;;7.75;;
34491;SDS011;20737;49.908;8.126;2022-11-09T06:02:21;12.32;;;7.95;;
34491;SDS011;20737;49.908;8.126;2022-11-09T06:04:48;10.18;;;7.22;;
34491;SDS011;20737;49.908;8.126;2022-11-09T06:07:14;14.27;;;8.60;;
34491;SDS011;20737;49.908;8.126;2022-11-09T06:09:41;13.38;;;8.50;;
34491;SDS011;20737;49.908;8.126;2022-11-09T06:12:08;12.18;;;8.35;;
34491;SDS011;20737;49.908;8.126;2022-11-09T06:14:35;14.70;;;9.35;;
34491;SDS011;20737;49.908;8.126;2022-11-09T06:17:01;15.98;;;9.63;;
34491;SDS011;20737;49.908;8.126;2022-11-09T06:19:30;16.00;;;10.25;;
34491;SDS011;20737;49.908;8.126;2022-11-09T06:21:56;13.95;;;9.27;;
34491;SDS011;20737;49.908;8.126;2022-11-09T06:24:23;15.18;;;9.63;;
34491;SDS011;20737;49.908;8.126;2022-11-09T06:26:50;16.88;;;9.73;;
34491;SDS011;20737;49.908;8.126;2022-11-09T06:29:16;13.27;;;9.68;;
34491;SDS011;20737;49.908;8.126;2022-11-09T06:31:43;17.75;;;10.23;;
34491;SDS011;20737;49.908;8.126;2022-11-09T06:34:12;17.00;;;10.05;;
34491;SDS011;20737;49.908;8.126;2022-11-09T06:36:40;15.88;;;9.35;;
34491;SDS011;20737;49.908;8.126;2022-11-09T06:39:07;15.85;;;9.57;;
34491;SDS011;20737;49.908;8.126;2022-11-09T06:41:34;18.83;;;11.00;;
34491;SDS011;20737;49.908;8.126;2022-11-09T06:44:01;20.90;;;11.63;;
34491;SDS011;20737;49.908;8.126;2022-11-09T06:46:29;24.55;;;12.95;;
34491;SDS011;20737;49.908;8.126;2022-11-09T06:48:56;24.13;;;11.52;;
34491;SDS011;20737;49.908;8.126;2022-11-09T06:51:23;19.77;;;10.77;;
34491;SDS011;20737;49.908;8.126;2022-11-09T06:53:51;20.73;;;10.68;;
34491;SDS011;20737;49.908;8.126;2022-11-09T06:56:18;19.33;;;11.23;;
34491;SDS011;20737;49.908;8.126;2022-11-09T06:58:44;16.63;;;10.32;;
34491;SDS011;20737;49.908;8.126;2022-11-09T07:01:12;19.27;;;10.20;;
34491;SDS011;20737;49.908;8.126;2022-11-09T07:03:42;17.02;;;9.68;;
34491;SDS011;20737;49.908;8.126;2022-11-09T07:06:10;15.45;;;10.18;;
34491;SDS011;20737;49.908;8.126;2022-11-09T07:08:38;14.80;;;10.20;;
34491;SDS011;20737;49.908;8.126;2022-11-09T07:11:07;14.88;;;8.38;;
34491;SDS011;20737;49.908;8.126;2022-11-09T07:13:35;16.67;;;9.95;;
34491;SDS011;20737;49.908;8.126;2022-11-09T07:16:02;14.48;;;8.93;;
34491;SDS011;20737;49.908;8.126;2022-11-09T07:18:29;13.48;;;8.93;;
34491;SDS011;20737;49.908;8.126;2022-11-09T07:20:56;17.05;;;9.95;;
34491;SDS011;20737;49.908;8.126;2022-11-09T07:23:23;15.00;;;8.77;;
34491;SDS011;20737;49.908;8.126;2022-11-09T07:25:50;14.57;;;9.63;;
34491;SDS011;20737;49.908;8.126;2022-11-09T07:28:18;16.73;;;9.55;;
34491;SDS011;20737;49.908;8.126;2022-11-09T07:30:44;13.32;;;9.27;;
34491;SDS011;20737;49.908;8.126;2022-11-09T07:33:15;13.02;;;8.75;;
34491;SDS011;20737;49.908;8.126;2022-11-09T07:35:43;13.30;;;9.43;;
34491;SDS011;20737;49.908;8.126;2022-11-09T07:38:10;13.15;;;8.85;;
34491;SDS011;20737;49.908;8.126;2022-11-09T07:40:37;11.90;;;9.02;;
34491;SDS011;20737;49.908;8.126;2022-11-09T07:43:05;13.40;;;8.70;;
34491;SDS011;20737;49.908;8.126;2022-11-09T07:45:33;11.35;;;7.55;;
34491;SDS011;20737;49.908;8.126;2022-11-09T07:48:01;15.18;;;9.07;;
34491;SDS011;20737;49.908;8.126;2022-11-09T07:50:30;12.32;;;8.00;;
34491;SDS011;20737;49.908;8.126;2022-11-09T07:52:58;13.90;;;8.43;;
34491;SDS011;20737;49.908;8.126;2022-11-09T07:55:26;13.70;;;8.20;;
34491;SDS011;20737;49.908;8.126;2022-11-09T07:57:54;26.25;;;8.98;;
34491;SDS011;20737;49.908;8.126;2022-11-09T08:00:21;12.40;;;7.88;;
34491;SDS011;20737;49.908;8.126;2022-11-09T08:02:49;9.52;;;7.78;;
34491;SDS011;20737;49.908;8.126;2022-11-09T08:05:16;14.57;;;8.90;;
34491;SDS011;20737;49.908;8.126;2022-11-09T08:07:43;15.82;;;8.43;;
34491;SDS011;20737;49.908;8.126;2022-11-09T08:10:10;10.23;;;7.40;;
34491;SDS011;20737;49.908;8.126;2022-11-09T08:12:37;8.63;;;5.88;;
34491;SDS011;20737;49.908;8.126;2022-11-09T08:15:05;6.30;;;4.32;;
34491;SDS011;20737;49.908;8.126;2022-11-09T08:17:32;6.47;;;3.17;;
34491;SDS011;20737;49.908;8.126;2022-11-09T08:20:00;3.67;;;2.58;;
34491;SDS011;20737;49.908;8.126;2022-11-09T08:22:27;7.53;;;3.38;;
34491;SDS011;20737;49.908;8.126;2022-11-09T08:24:53;4.30;;;3.58;;
34491;SDS011;20737;49.908;8.126;2022-11-09T08:27:20;5.40;;;4.38;;
34491;SDS011;20737;49.908;8.126;2022-11-09T08:29:47;6.40;;;4.25;;
34491;SDS011;20737;49.908;8.126;2022-11-09T08:32:14;8.63;;;5.43;;
34491;SDS011;20737;49.908;8.126;2022-11-09T08:34:44;8.93;;;5.93;;
34491;SDS011;20737;49.908;8.126;2022-11-09T08:37:13;7.88;;;5.30;;
34491;SDS011;20737;49.908;8.126;2022-11-09T08:39:40;7.05;;;4.97;;
34491;SDS011;20737;49.908;8.126;2022-11-09T08:42:07;7.82;;;4.63;;
34491;SDS011;20737;49.908;8.126;2022-11-09T08:44:34;4.53;;;3.30;;
34491;SDS011;20737;49.908;8.126;2022-11-09T08:47:00;4.78;;;2.85;;
34491;SDS011;20737;49.908;8.126;2022-11-09T08:49:27;2.65;;;2.15;;
34491;SDS011;20737;49.908;8.126;2022-11-09T08:51:54;2.13;;;1.88;;
34491;SDS011;20737;49.908;8.126;2022-11-09T08:54:22;2.67;;;1.65;;
34491;SDS011;20737;49.908;8.126;2022-11-09T08:56:49;4.20;;;2.00;;
34491;SDS011;20737;49.908;8.126;2022-11-09T08:59:15;5.85;;;3.17;;
34491;SDS011;20737;49.908;8.126;2022-11-09T09:01:42;5.15;;;2.65;;
34491;SDS011;20737;49.908;8.126;2022-11-09T09:04:09;3.85;;;2.28;;
34491;SDS011;20737;49.908;8.126;2022-11-09T09:06:36;1.50;;;1.40;;
34491;SDS011;20737;49.908;8.126;2022-11-09T09:09:02;2.42;;;1.85;;
34491;SDS011;20737;49.908;8.126;2022-11-09T09:11:30;2.22;;;1.83;;
34491;SDS011;20737;49.908;8.126;2022-11-09T09:13:57;2.47;;;1.55;;
34491;SDS011;20737;49.908;8.126;2022-11-09T09:16:24;2.28;;;1.23;;
34491;SDS011;20737;49.908;8.126;2022-11-09T09:18:51;2.70;;;1.30;;
34491;SDS011;20737;49.908;8.126;2022-11-09T09:21:17;4.75;;;1.40;;
34491;SDS011;20737;49.908;8.126;2022-11-09T09:23:45;1.75;;;1.10;;
34491;SDS011;20737;49.908;8.126;2022-11-09T09:26:13;1.70;;;1.20;;
34491;SDS011;20737;49.908;8.126;2022-11-09T09:28:41;1.10;;;0.93;;
34491;SDS011;20737;49.908;8.126;2022-11-09T09:31:08;6.82;;;1.20;;
34491;SDS011;20737;49.908;8.126;2022-11-09T09:33:35;1.13;;;0.70;;
34491;SDS011;20737;49.908;8.126;2022-11-09T09:36:03;2.17;;;0.85;;
34491;SDS011;20737;49.908;8.126;2022-11-09T09:38:30;0.47;;;0.47;;
34491;SDS011;20737;49.908;8.126;2022-11-09T09:40:57;2.80;;;0.95;;
34491;SDS011;20737;49.908;8.126;2022-11-09T09:43:30;2.03;;;0.75;;
34491;SDS011;20737;49.908;8.126;2022-11-09T09:46:03;0.98;;;0.52;;
34491;SDS011;20737;49.908;8.126;2022-11-09T09:48:39;1.55;;;0.60;;
34491;SDS011;20737;49.908;8.126;2022-11-09T09:51:10;2.15;;;0.70;;
34491;SDS011;20737;49.908;8.126;2022-11-09T09:56:17;1.38;;;0.80;;
34491;SDS011;20737;49.908;8.126;2022-11-09T09:58:48;2.97;;;0.80;;
34491;SDS011;20737;49.908;8.126;2022-11-09T10:01:20;1.70;;;0.90;;
34491;SDS011;20737;49.908;8.126;2022-11-09T10:03:52;3.90;;;1.20;;
34491;SDS011;20737;49.908;8.126;2022-11-09T10:06:25;0.85;;;0.75;;
34491;SDS011;20737;49.908;8.126;2022-11-09T10:09:04;2.97;;;0.70;;
34491;SDS011;20737;49.908;8.126;2022-11-09T10:11:42;3.28;;;0.75;;
34491;SDS011;20737;49.908;8.126;2022-11-09T10:14:19;1.73;;;0.73;;
34491;SDS011;20737;49.908;8.126;2022-11-09T10:17:01;0.82;;;0.60;;
34491;SDS011;20737;49.908;8.126;2022-11-09T10:19:38;3.70;;;0.75;;
34491;SDS011;20737;49.908;8.126;2022-11-09T10:22:18;0.98;;;0.52;;
34491;SDS011;20737;49.908;8.126;2022-11-09T10:24:51;0.50;;;0.50;;
34491;SDS011;20737;49.908;8.126;2022-11-09T10:27:24;0.73;;;0.40;;
34491;SDS011;20737;49.908;8.126;2022-11-09T10:29:52;2.05;;;0.70;;
34491;SDS011;20737;49.908;8.126;2022-11-09T10:32:22;0.68;;;0.57;;
34491;SDS011;20737;49.908;8.126;2022-11-09T10:34:51;2.65;;;0.70;;
34491;SDS011;20737;49.908;8.126;2022-11-09T10:37:20;1.63;;;1.00;;
34491;SDS011;20737;49.908;8.126;2022-11-09T10:39:51;2.00;;;0.52;;
34491;SDS011;20737;49.908;8.126;2022-11-09T10:42:21;2.03;;;0.70;;
34491;SDS011;20737;49.908;8.126;2022-11-09T10:44:48;2.47;;;0.47;;
34491;SDS011;20737;49.908;8.126;2022-11-09T10:47:15;2.45;;;0.57;;
34491;SDS011;20737;49.908;8.126;2022-11-09T10:49:44;3.33;;;0.60;;
34491;SDS011;20737;49.908;8.126;2022-11-09T10:52:30;1.23;;;0.50;;
34491;SDS011;20737;49.908;8.126;2022-11-09T10:55:19;2.47;;;0.70;;
34491;SDS011;20737;49.908;8.126;2022-11-09T10:57:49;1.35;;;0.50;;
34491;SDS011;20737;49.908;8.126;2022-11-09T11:00:19;1.48;;;0.65;;
34491;SDS011;20737;49.908;8.126;2022-11-09T11:02:46;1.13;;;0.73;;
34491;SDS011;20737;49.908;8.126;2022-11-09T11:05:21;1.17;;;0.60;;
34491;SDS011;20737;49.908;8.126;2022-11-09T11:08:18;1.10;;;0.50;;
34491;SDS011;20737;49.908;8.126;2022-11-09T11:11:05;0.85;;;0.70;;
34491;SDS011;20737;49.908;8.126;2022-11-09T11:13:41;1.75;;;0.70;;
34491;SDS011;20737;49.908;8.126;2022-11-09T11:16:25;1.60;;;0.70;;
34491;SDS011;20737;49.908;8.126;2022-11-09T11:18:54;1.63;;;0.80;;
34491;SDS011;20737;49.908;8.126;2022-11-09T11:21:23;3.65;;;1.13;;
34491;SDS011;20737;49.908;8.126;2022-11-09T11:24:11;2.60;;;0.93;;
34491;SDS011;20737;49.908;8.126;2022-11-09T11:26:50;2.35;;;1.42;;
34491;SDS011;20737;49.908;8.126;2022-11-09T11:32:10;3.03;;;0.88;;
34491;SDS011;20737;49.908;8.126;2022-11-09T11:34:39;2.60;;;0.80;;
34491;SDS011;20737;49.908;8.126;2022-11-09T11:37:16;2.53;;;0.80;;
34491;SDS011;20737;49.908;8.126;2022-11-09T11:39:56;2.67;;;0.93;;
34491;SDS011;20737;49.908;8.126;2022-11-09T11:42:39;2.47;;;1.00;;
34491;SDS011;20737;49.908;8.126;2022-11-09T11:45:19;2.30;;;0.70;;
34491;SDS011;20737;49.908;8.126;2022-11-09T11:47:58;2.30;;;0.80;;
34491;SDS011;20737;49.908;8.126;2022-11-09T11:50:38;2.47;;;0.80;;
34491;SDS011;20737;49.908;8.126;2022-11-09T11:53:13;1.60;;;0.70;;
34491;SDS011;20737;49.908;8.126;2022-11-09T11:55:54;3.72;;;0.82;;
34491;SDS011;20737;49.908;8.126;2022-11-09T11:58:34;2.67;;;0.95;;
34491;SDS011;20737;49.908;8.126;2022-11-09T12:01:12;1.38;;;0.60;;
34491;SDS011;20737;49.908;8.126;2022-11-09T12:04:01;4.70;;;0.70;;
34491;SDS011;20737;49.908;8.126;2022-11-09T12:06:52;4.15;;;1.08;;
34491;SDS011;20737;49.908;8.126;2022-11-09T12:09:31;2.47;;;0.60;;
34491;SDS011;20737;49.908;8.126;2022-11-09T12:12:15;1.00;;;0.65;;
34491;SDS011;20737;49.908;8.126;2022-11-09T12:14:51;3.40;;;1.00;;
34491;SDS011;20737;49.908;8.126;2022-11-09T12:17:27;1.23;;;0.57;;
34491;SDS011;20737;49.908;8.126;2022-11-09T12:20:14;3.05;;;0.90;;
34491;SDS011;20737;49.908;8.126;2022-11-09T12:22:55;1.00;;;0.60;;
34491;SDS011;20737;49.908;8.126;2022-11-09T12:25:40;2.88;;;0.65;;
34491;SDS011;20737;49.908;8.126;2022-11-09T12:28:26;0.68;;;0.65;;
34491;SDS011;20737;49.908;8.126;2022-11-09T12:31:12;1.95;;;0.80;;
34491;SDS011;20737;49.908;8.126;2022-11-09T12:33:49;1.80;;;0.88;;
34491;SDS011;20737;49.908;8.126;2022-11-09T12:36:21;2.28;;;0.70;;
34491;SDS011;20737;49.908;8.126;2022-11-09T12:38:55;4.28;;;1.27;;
34491;SDS011;20737;49.908;8.126;2022-11-09T12:41:27;1.38;;;0.73;;
34491;SDS011;20737;49.908;8.126;2022-11-09T12:43:59;1.42;;;0.70;;
34491;SDS011;20737;49.908;8.126;2022-11-09T12:46:30;2.35;;;0.75;;
34491;SDS011;20737;49.908;8.126;2022-11-09T12:49:01;3.80;;;0.82;;
34491;SDS011;20737;49.908;8.126;2022-11-09T12:51:29;3.85;;;0.73;;
34491;SDS011;20737;49.908;8.126;2022-11-09T12:53:56;3.25;;;0.75;;
34491;SDS011;20737;49.908;8.126;2022-11-09T12:56:29;3.00;;;0.60;;
34491;SDS011;20737;49.908;8.126;2022-11-09T12:59:18;5.60;;;1.02;;
34491;SDS011;20737;49.908;8.126;2022-11-09T13:01:47;2.58;;;0.82;;
34491;SDS011;20737;49.908;8.126;2022-11-09T13:04:19;1.52;;;0.68;;
34491;SDS011;20737;49.908;8.126;2022-11-09T13:10:00;2.30;;;0.60;;
34491;SDS011;20737;49.908;8.126;2022-11-09T13:12:35;3.22;;;1.08;;
34491;SDS011;20737;49.908;8.126;2022-11-09T13:15:20;2.08;;;1.15;;
34491;SDS011;20737;49.908;8.126;2022-11-09T13:17:58;5.43;;;0.80;;
34491;SDS011;20737;49.908;8.126;2022-11-09T13:20:38;3.33;;;0.90;;
34491;SDS011;20737;49.908;8.126;2022-11-09T13:23:27;5.28;;;0.75;;
34491;SDS011;20737;49.908;8.126;2022-11-09T13:25:56;1.08;;;0.75;;
34491;SDS011;20737;49.908;8.126;2022-11-09T13:34:40;4.28;;;2.65;;
34491;SDS011;20737;49.908;8.126;2022-11-09T13:40:01;2.97;;;1.00;;
34491;SDS011;20737;49.908;8.126;2022-11-09T13:42:43;3.33;;;1.10;;
34491;SDS011;20737;49.908;8.126;2022-11-09T13:45:23;1.55;;;0.90;;
34491;SDS011;20737;49.908;8.126;2022-11-09T13:47:53;4.43;;;0.80;;
34491;SDS011;20737;49.908;8.126;2022-11-09T13:50:22;4.82;;;1.40;;
34491;SDS011;20737;49.908;8.126;2022-11-09T13:52:50;2.17;;;1.00;;
34491;SDS011;20737;49.908;8.126;2022-11-09T13:55:23;2.45;;;0.77;;
34491;SDS011;20737;49.908;8.126;2022-11-09T13:57:54;4.20;;;0.80;;
34491;SDS011;20737;49.908;8.126;2022-11-09T14:00:24;3.97;;;0.60;;
34491;SDS011;20737;49.908;8.126;2022-11-09T14:02:52;2.60;;;0.80;;
34491;SDS011;20737;49.908;8.126;2022-11-09T14:05:26;1.63;;;0.70;;
34491;SDS011;20737;49.908;8.126;2022-11-09T14:07:57;4.10;;;0.80;;
34491;SDS011;20737;49.908;8.126;2022-11-09T14:13:31;2.78;;;0.98;;
34491;SDS011;20737;49.908;8.126;2022-11-09T14:16:21;7.10;;;1.10;;
34491;SDS011;20737;49.908;8.126;2022-11-09T14:18:57;1.67;;;0.70;;
34491;SDS011;20737;49.908;8.126;2022-11-09T14:21:39;3.45;;;1.23;;
34491;SDS011;20737;49.908;8.126;2022-11-09T14:24:13;2.55;;;0.82;;
34491;SDS011;20737;49.908;8.126;2022-11-09T14:29:47;2.17;;;0.70;;
34491;SDS011;20737;49.908;8.126;2022-11-09T14:32:23;2.75;;;1.00;;
34491;SDS011;20737;49.908;8.126;2022-11-09T14:34:51;3.17;;;0.90;;
34491;SDS011;20737;49.908;8.126;2022-11-09T14:37:19;4.25;;;0.77;;
34491;SDS011;20737;49.908;8.126;2022-11-09T14:39:47;2.17;;;1.08;;
34491;SDS011;20737;49.908;8.126;2022-11-09T14:42:17;2.42;;;1.33;;
34491;SDS011;20737;49.908;8.126;2022-11-09T14:44:46;1.45;;;0.60;;
34491;SDS011;20737;49.908;8.126;2022-11-09T14:47:15;1.77;;;0.95;;
34491;SDS011;20737;49.908;8.126;2022-11-09T14:49:43;0.98;;;0.60;;
34491;SDS011;20737;49.908;8.126;2022-11-09T14:52:11;2.78;;;0.93;;
34491;SDS011;20737;49.908;8.126;2022-11-09T14:54:43;1.92;;;0.73;;
34491;SDS011;20737;49.908;8.126;2022-11-09T14:57:12;1.50;;;0.88;;
34491;SDS011;20737;49.908;8.126;2022-11-09T14:59:40;2.47;;;0.65;;
34491;SDS011;20737;49.908;8.126;2022-11-09T15:02:09;2.72;;;0.70;;
34491;SDS011;20737;49.908;8.126;2022-11-09T15:04:54;3.35;;;0.80;;
34491;SDS011;20737;49.908;8.126;2022-11-09T15:07:23;1.15;;;0.80;;
34491;SDS011;20737;49.908;8.126;2022-11-09T15:09:54;1.63;;;0.98;;
34491;SDS011;20737;49.908;8.126;2022-11-09T15:12:23;2.80;;;0.90;;
34491;SDS011;20737;49.908;8.126;2022-11-09T15:14:51;1.85;;;0.77;;
34491;SDS011;20737;49.908;8.126;2022-11-09T15:17:21;3.25;;;1.60;;
34491;SDS011;20737;49.908;8.126;2022-11-09T15:19:51;1.48;;;1.00;;
34491;SDS011;20737;49.908;8.126;2022-11-09T15:22:40;1.77;;;1.40;;
34491;SDS011;20737;49.908;8.126;2022-11-09T15:25:21;2.80;;;1.52;;
34491;SDS011;20737;49.908;8.126;2022-11-09T15:27:55;3.90;;;1.13;;